Terminal Aerodrome Forecast
Issued by NWS

Home | Current Version | Previous Version | Text Only | Print | Product List | Glossary On
Versions: 1 2 3 4 5 6 7 8 9 10 11 12 13 14 15 16 17 18 19 20 21 22 23
000
FTUS42 KTAE 032320
TAFECP
TAF
KECP 032320Z 0400/0424 24005KT P6SM SCT025 BKN250
      TEMPO 0401/0404 VRB10G20KT 3SM TSRA BKN015CB
     FM040400 27003KT P6SM BKN040
     FM041200 33010KT P6SM SCT040=

USA.gov is the U.S. government's official web portal to all federal, state and local government web resources and services.